Flight Track Log - Related Links

Times and Time Zones

All times are in EDT time to prevent confusion due to time zone crossing. See the SEJ1003 flight status page for this flight to view local times or setup timezone preferences in your user account.

Time Position Orientation Groundspeed Altitude Reporting Facility
EDT Latitude Longitude Course Direction KTS MPH feet Rate Location/Type
Thu 08:37:00 PM 16.8841 78.5861 158° South  Level Estimated
Thu 08:38:00 PM 16.8224 78.6119 158° South  Level Estimated
Thu 08:39:00 PM 16.7607 78.6376 158° South  Level Estimated
Thu 08:40:00 PM 16.6991 78.6634 158° South  Level Estimated
Thu 08:41:00 PM 16.6374 78.6891 158° South  Level Estimated
Thu 08:42:00 PM 16.5757 78.7149 158° South  Level Estimated
Thu 08:43:00 PM 16.5140 78.7406 158° South  Level Estimated
Thu 08:44:00 PM 16.4524 78.7663 158° South  Level Estimated
Thu 08:45:00 PM 16.3907 78.7919 158° South  Level Estimated
Thu 08:46:00 PM 16.3290 78.8176 158° South  Level Estimated
Thu 08:47:00 PM 16.2673 78.8432 158° South  Level Estimated
Thu 08:48:00 PM 16.2056 78.8689 158° South  Level Estimated
Thu 08:49:00 PM 16.1439 78.8945 158° South  Level Estimated
Thu 08:50:00 PM 16.0822 78.9201 158° South  Level Estimated
Thu 08:51:00 PM 16.0205 78.9456 158° South  Level Estimated
Thu 08:52:00 PM 15.9588 78.9712 158° South  Level Estimated
Thu 08:53:00 PM 15.8970 78.9967 158° South  Level Estimated
Thu 08:54:00 PM 15.8353 79.0223 158° South  Level Estimated
Thu 08:55:00 PM 15.7736 79.0478 158° South  Level Estimated
Thu 08:56:00 PM 15.7119 79.0733 158° South  Level Estimated
Thu 08:57:00 PM 15.6502 79.0988 158° South  Level Estimated
Thu 08:58:00 PM 15.5884 79.1242 158° South  Level Estimated
Thu 08:59:00 PM 15.5267 79.1497 158° South  Level Estimated
Thu 09:00:00 PM 15.4650 79.1751 158° South  Level Estimated
Thu 09:01:00 PM 15.4032 79.2005 158° South  Level Estimated
Thu 09:02:00 PM 15.3415 79.2260 158° South  Level Estimated
Thu 09:03:00 PM 15.2798 79.2513 158° South  Level Estimated
Thu 09:04:00 PM 15.2180 79.2767 158° South  Level Estimated
Thu 09:05:00 PM 15.1563 79.3021 158° South  Level Estimated
Thu 09:06:00 PM 15.0945 79.3274 158° South  Level Estimated
Thu 09:07:00 PM 15.0328 79.3528 158° South  Level Estimated
Thu 09:08:00 PM 14.9710 79.3781 158° South  Level Estimated
Thu 09:09:00 PM 14.9093 79.4034 158° South  Level Estimated
Thu 09:10:00 PM 14.8475 79.4287 158° South  Level Estimated
Thu 09:11:00 PM 14.7857 79.4539 158° South  Level Estimated
Thu 09:12:00 PM 14.7240 79.4792 158° South  Level Estimated
Thu 09:13:00 PM 14.6622 79.5044 158° South  Level Estimated
Thu 09:14:00 PM 14.6004 79.5297 158° South  Level Estimated
Thu 09:15:00 PM 14.5386 79.5549 158° South  Level Estimated
Thu 09:16:00 PM 14.4769 79.5801 158° South  Level Estimated
Thu 09:17:00 PM 14.4151 79.6053 158° South  Level Estimated
Thu 09:18:00 PM 14.3533 79.6305 158° South  Level Estimated
Thu 09:19:00 PM 14.2915 79.6556 158° South  Level Estimated
Thu 09:20:00 PM 14.2297 79.6808 158° South  Level Estimated
Thu 09:21:00 PM 14.1679 79.7059 158° South  Level Estimated
Thu 09:22:00 PM 14.1061 79.7310 158° South  Level Estimated
Thu 09:23:00 PM 14.0443 79.7561 158° South  Level Estimated
Thu 09:24:00 PM 13.9825 79.7812 158° South  Level Estimated
Thu 09:25:00 PM 13.9207 79.8063 159° South  Level Estimated
Thu 09:26:00 PM 13.8589 79.8314 159° South  Level Estimated
Thu 09:27:00 PM 13.7971 79.8564 159° South  Level Estimated
Thu 09:28:00 PM 13.7353 79.8815 159° South  Level Estimated
Thu 09:29:00 PM 13.6735 79.9065 159° South  Level Estimated
Thu 09:30:00 PM 13.6117 79.9315 159° South  Level Estimated
Thu 09:31:00 PM 13.5499 79.9565 159° South  Level Estimated
Thu 09:32:00 PM 13.4881 79.9815 159° South  Level Estimated
Thu 09:33:00 PM 13.4262 80.0065 159° South  Level Estimated
Thu 09:34:00 PM 13.3644 80.0314 159° South  Level Estimated
Thu 09:35:00 PM 13.3026 80.0564 159° South  Level Estimated
Thu 09:36:00 PM 13.2408 80.0813 159° South  Level Estimated
Thu 09:37:00 PM 13.1789 80.1062 159° South  Level Estimated
Thu 09:38:00 PM 13.1171 80.1311 159° South  Level Estimated

Login

Don't have an account? Register now (free) for customized features, flight alerts, and more!